ユジノサハリンスク の空港の天気 - METARとTAF

ホムトヴォ空港(ユジノサハリンスク) ( UHSS / UUS ) - ロシア ユジノサハリンスク
飛行場実況気象(Metar)
観測時間08/17 13:00 VLAT (08/17 03:00 UTC)
風向・風速南南東 2m/s
視程10km以上
天気現象
全天の8割程度の雲 雲底高度 1130m
気温18℃
湿度77%
気圧1015hPa
METARUHSS 170300Z 15002MPS 9999 BKN037CB 18/14 Q1015 R01/70D NOSIG RMK QFE760/1013
過去の天気等 Google飛行場航空写真 Wunderground天気予報

過去48時間のMETAR

飛行場予報(TAF)
発表時間: 8/17 12:00 VLAT (8/17 02:00 UTC)
予報対象時間: 17日13時 VLAT ~ 18日19時 VLAT
風向・風速不定 1m/s
視程10km以上
全天の8割程度の雲 雲底高度 760m
TAF UHSS 170200Z 1703/1809 VRB01MPS 9999 BKN025